sensor_id;sensor_type;location;lat;lon;timestamp;temperature;humidity
24217;DHT22;12356;49.386;8.688;2022-08-05T00:02:08;27.60;40.20
24217;DHT22;12356;49.386;8.688;2022-08-05T00:04:39;27.60;40.50
24217;DHT22;12356;49.386;8.688;2022-08-05T00:07:09;27.70;40.90
24217;DHT22;12356;49.386;8.688;2022-08-05T00:09:40;27.70;41.70
24217;DHT22;12356;49.386;8.688;2022-08-05T00:12:10;27.70;42.20
24217;DHT22;12356;49.386;8.688;2022-08-05T00:14:41;27.70;42.30
24217;DHT22;12356;49.386;8.688;2022-08-05T00:17:12;27.70;42.50
24217;DHT22;12356;49.386;8.688;2022-08-05T00:19:42;27.70;42.70
24217;DHT22;12356;49.386;8.688;2022-08-05T00:22:13;27.70;43.20
24217;DHT22;12356;49.386;8.688;2022-08-05T00:24:43;27.70;43.60
24217;DHT22;12356;49.386;8.688;2022-08-05T00:27:14;27.70;43.80
24217;DHT22;12356;49.386;8.688;2022-08-05T00:29:45;27.60;44.20
24217;DHT22;12356;49.386;8.688;2022-08-05T00:32:15;27.60;44.50
24217;DHT22;12356;49.386;8.688;2022-08-05T00:34:46;27.50;44.60
24217;DHT22;12356;49.386;8.688;2022-08-05T00:37:16;27.50;45.00
24217;DHT22;12356;49.386;8.688;2022-08-05T00:39:47;27.50;46.30
24217;DHT22;12356;49.386;8.688;2022-08-05T00:42:35;27.40;46.10
24217;DHT22;12356;49.386;8.688;2022-08-05T00:45:07;27.30;46.80
24217;DHT22;12356;49.386;8.688;2022-08-05T00:47:38;27.30;47.20
24217;DHT22;12356;49.386;8.688;2022-08-05T00:50:10;27.20;48.00
24217;DHT22;12356;49.386;8.688;2022-08-05T00:52:40;27.20;48.80
24217;DHT22;12356;49.386;8.688;2022-08-05T00:55:11;27.10;49.30
24217;DHT22;12356;49.386;8.688;2022-08-05T00:57:42;27.10;49.70
24217;DHT22;12356;49.386;8.688;2022-08-05T01:00:13;27.10;50.10
24217;DHT22;12356;49.386;8.688;2022-08-05T01:02:43;27.00;50.40
24217;DHT22;12356;49.386;8.688;2022-08-05T01:05:14;27.00;50.70
24217;DHT22;12356;49.386;8.688;2022-08-05T01:07:44;27.00;51.00
24217;DHT22;12356;49.386;8.688;2022-08-05T01:10:17;26.90;51.20
24217;DHT22;12356;49.386;8.688;2022-08-05T01:12:52;26.90;51.60
24217;DHT22;12356;49.386;8.688;2022-08-05T01:15:29;26.80;51.80
24217;DHT22;12356;49.386;8.688;2022-08-05T01:18:08;26.80;51.80
24217;DHT22;12356;49.386;8.688;2022-08-05T01:24:05;26.80;52.00
24217;DHT22;12356;49.386;8.688;2022-08-05T01:29:36;26.80;51.80
24217;DHT22;12356;49.386;8.688;2022-08-05T01:32:08;26.80;51.60
24217;DHT22;12356;49.386;8.688;2022-08-05T01:34:45;26.70;51.70
24217;DHT22;12356;49.386;8.688;2022-08-05T01:37:20;26.70;50.10
24217;DHT22;12356;49.386;8.688;2022-08-05T01:39:52;26.80;49.20
24217;DHT22;12356;49.386;8.688;2022-08-05T01:42:25;26.90;48.30
24217;DHT22;12356;49.386;8.688;2022-08-05T01:44:58;27.10;47.50
24217;DHT22;12356;49.386;8.688;2022-08-05T01:47:32;27.10;47.40
24217;DHT22;12356;49.386;8.688;2022-08-05T01:50:07;27.10;46.80
24217;DHT22;12356;49.386;8.688;2022-08-05T01:52:41;27.20;47.10
24217;DHT22;12356;49.386;8.688;2022-08-05T01:55:13;27.20;46.90
24217;DHT22;12356;49.386;8.688;2022-08-05T01:57:46;27.20;46.40
24217;DHT22;12356;49.386;8.688;2022-08-05T02:00:18;27.30;46.00
24217;DHT22;12356;49.386;8.688;2022-08-05T02:02:55;27.30;45.20
24217;DHT22;12356;49.386;8.688;2022-08-05T02:05:31;27.40;45.50
24217;DHT22;12356;49.386;8.688;2022-08-05T02:08:04;27.40;45.40
24217;DHT22;12356;49.386;8.688;2022-08-05T02:10:43;27.40;45.50
24217;DHT22;12356;49.386;8.688;2022-08-05T02:13:23;27.40;45.00
24217;DHT22;12356;49.386;8.688;2022-08-05T02:16:03;27.30;45.20
24217;DHT22;12356;49.386;8.688;2022-08-05T02:18:49;27.40;45.20
24217;DHT22;12356;49.386;8.688;2022-08-05T02:21:27;27.40;45.20
24217;DHT22;12356;49.386;8.688;2022-08-05T02:24:05;27.40;45.50
24217;DHT22;12356;49.386;8.688;2022-08-05T02:26:41;27.40;46.10
24217;DHT22;12356;49.386;8.688;2022-08-05T02:29:21;27.30;46.60
24217;DHT22;12356;49.386;8.688;2022-08-05T02:31:58;27.30;46.80
24217;DHT22;12356;49.386;8.688;2022-08-05T02:34:30;27.30;47.20
24217;DHT22;12356;49.386;8.688;2022-08-05T02:37:03;27.20;47.70
24217;DHT22;12356;49.386;8.688;2022-08-05T02:39:36;27.20;48.70
24217;DHT22;12356;49.386;8.688;2022-08-05T02:42:08;27.10;49.10
24217;DHT22;12356;49.386;8.688;2022-08-05T02:44:41;27.10;49.80
24217;DHT22;12356;49.386;8.688;2022-08-05T02:47:13;27.10;49.20
24217;DHT22;12356;49.386;8.688;2022-08-05T02:49:45;27.00;49.20
24217;DHT22;12356;49.386;8.688;2022-08-05T02:52:18;27.00;49.80
24217;DHT22;12356;49.386;8.688;2022-08-05T02:54:51;26.90;50.70
24217;DHT22;12356;49.386;8.688;2022-08-05T02:57:21;26.90;51.40
24217;DHT22;12356;49.386;8.688;2022-08-05T02:59:54;26.80;52.10
24217;DHT22;12356;49.386;8.688;2022-08-05T03:02:28;26.70;52.40
24217;DHT22;12356;49.386;8.688;2022-08-05T03:05:01;26.70;52.40
24217;DHT22;12356;49.386;8.688;2022-08-05T03:07:33;26.70;51.90
24217;DHT22;12356;49.386;8.688;2022-08-05T03:10:04;26.70;52.60
24217;DHT22;12356;49.386;8.688;2022-08-05T03:12:36;26.60;53.50
24217;DHT22;12356;49.386;8.688;2022-08-05T03:15:08;26.60;53.60
24217;DHT22;12356;49.386;8.688;2022-08-05T03:17:39;26.60;53.10
24217;DHT22;12356;49.386;8.688;2022-08-05T03:20:10;26.60;52.90
24217;DHT22;12356;49.386;8.688;2022-08-05T03:22:41;26.60;52.80
24217;DHT22;12356;49.386;8.688;2022-08-05T03:25:12;26.60;52.90
24217;DHT22;12356;49.386;8.688;2022-08-05T03:27:43;26.60;52.80
24217;DHT22;12356;49.386;8.688;2022-08-05T03:30:14;26.60;53.10
24217;DHT22;12356;49.386;8.688;2022-08-05T03:32:44;26.60;53.20
24217;DHT22;12356;49.386;8.688;2022-08-05T03:35:15;26.50;54.70
24217;DHT22;12356;49.386;8.688;2022-08-05T03:37:46;26.50;54.80
24217;DHT22;12356;49.386;8.688;2022-08-05T03:40:17;26.50;54.60
24217;DHT22;12356;49.386;8.688;2022-08-05T03:42:48;26.40;55.20
24217;DHT22;12356;49.386;8.688;2022-08-05T03:45:19;26.40;54.60
24217;DHT22;12356;49.386;8.688;2022-08-05T03:47:50;26.40;53.80
24217;DHT22;12356;49.386;8.688;2022-08-05T03:50:21;26.40;53.90
24217;DHT22;12356;49.386;8.688;2022-08-05T03:52:59;26.40;54.00
24217;DHT22;12356;49.386;8.688;2022-08-05T03:55:36;26.40;54.60
24217;DHT22;12356;49.386;8.688;2022-08-05T03:58:10;26.40;54.90
24217;DHT22;12356;49.386;8.688;2022-08-05T04:00:43;26.40;56.40
24217;DHT22;12356;49.386;8.688;2022-08-05T04:03:15;26.30;57.60
24217;DHT22;12356;49.386;8.688;2022-08-05T04:05:46;26.20;57.00
24217;DHT22;12356;49.386;8.688;2022-08-05T04:08:18;26.10;63.50
24217;DHT22;12356;49.386;8.688;2022-08-05T04:10:49;26.00;64.60
24217;DHT22;12356;49.386;8.688;2022-08-05T04:13:20;25.80;66.20
24217;DHT22;12356;49.386;8.688;2022-08-05T04:15:51;25.70;68.00
24217;DHT22;12356;49.386;8.688;2022-08-05T04:18:22;25.50;73.80
24217;DHT22;12356;49.386;8.688;2022-08-05T04:20:54;25.30;77.10
24217;DHT22;12356;49.386;8.688;2022-08-05T04:23:26;25.10;76.40
24217;DHT22;12356;49.386;8.688;2022-08-05T04:25:57;25.00;76.80
24217;DHT22;12356;49.386;8.688;2022-08-05T04:28:28;24.80;78.10
24217;DHT22;12356;49.386;8.688;2022-08-05T04:30:59;24.80;79.30
24217;DHT22;12356;49.386;8.688;2022-08-05T04:33:30;24.70;78.00
24217;DHT22;12356;49.386;8.688;2022-08-05T04:36:00;24.50;79.60
24217;DHT22;12356;49.386;8.688;2022-08-05T04:38:31;24.40;80.10
24217;DHT22;12356;49.386;8.688;2022-08-05T04:41:02;24.30;81.90
24217;DHT22;12356;49.386;8.688;2022-08-05T04:43:32;24.40;83.10
24217;DHT22;12356;49.386;8.688;2022-08-05T04:46:03;24.40;84.20
24217;DHT22;12356;49.386;8.688;2022-08-05T04:48:34;24.30;83.90
24217;DHT22;12356;49.386;8.688;2022-08-05T04:51:05;24.30;80.80
24217;DHT22;12356;49.386;8.688;2022-08-05T04:53:36;24.30;82.70
24217;DHT22;12356;49.386;8.688;2022-08-05T04:56:06;24.20;83.20
24217;DHT22;12356;49.386;8.688;2022-08-05T04:58:37;24.20;83.50
24217;DHT22;12356;49.386;8.688;2022-08-05T05:01:08;24.20;83.80
24217;DHT22;12356;49.386;8.688;2022-08-05T05:03:39;24.10;80.90
24217;DHT22;12356;49.386;8.688;2022-08-05T05:06:12;24.20;82.70
24217;DHT22;12356;49.386;8.688;2022-08-05T05:08:43;24.20;81.80
24217;DHT22;12356;49.386;8.688;2022-08-05T05:11:14;24.20;82.20
24217;DHT22;12356;49.386;8.688;2022-08-05T05:13:44;24.10;78.40
24217;DHT22;12356;49.386;8.688;2022-08-05T05:16:15;24.10;74.90
24217;DHT22;12356;49.386;8.688;2022-08-05T05:18:45;24.10;73.60
24217;DHT22;12356;49.386;8.688;2022-08-05T05:21:16;24.10;73.00
24217;DHT22;12356;49.386;8.688;2022-08-05T05:23:47;24.10;71.70
24217;DHT22;12356;49.386;8.688;2022-08-05T05:26:17;24.10;73.90
24217;DHT22;12356;49.386;8.688;2022-08-05T05:28:48;24.10;72.90
24217;DHT22;12356;49.386;8.688;2022-08-05T05:31:19;24.10;75.40
24217;DHT22;12356;49.386;8.688;2022-08-05T05:33:49;24.00;76.20
24217;DHT22;12356;49.386;8.688;2022-08-05T05:36:20;24.00;74.90
24217;DHT22;12356;49.386;8.688;2022-08-05T05:38:51;24.00;76.70
24217;DHT22;12356;49.386;8.688;2022-08-05T05:41:21;24.00;75.40
24217;DHT22;12356;49.386;8.688;2022-08-05T05:43:52;24.00;76.70
24217;DHT22;12356;49.386;8.688;2022-08-05T05:46:22;24.00;75.10
24217;DHT22;12356;49.386;8.688;2022-08-05T05:48:53;23.90;75.10
24217;DHT22;12356;49.386;8.688;2022-08-05T05:51:24;24.00;76.70
24217;DHT22;12356;49.386;8.688;2022-08-05T05:53:55;24.00;76.70
24217;DHT22;12356;49.386;8.688;2022-08-05T05:56:30;24.10;76.80
24217;DHT22;12356;49.386;8.688;2022-08-05T05:59:02;24.00;74.60
24217;DHT22;12356;49.386;8.688;2022-08-05T06:01:38;24.10;75.40
24217;DHT22;12356;49.386;8.688;2022-08-05T06:04:11;24.10;74.00
24217;DHT22;12356;49.386;8.688;2022-08-05T06:06:43;24.20;75.60
24217;DHT22;12356;49.386;8.688;2022-08-05T06:09:14;24.20;72.90
24217;DHT22;12356;49.386;8.688;2022-08-05T06:11:45;24.30;68.90
24217;DHT22;12356;49.386;8.688;2022-08-05T06:14:15;24.40;68.00
24217;DHT22;12356;49.386;8.688;2022-08-05T06:16:46;24.40;67.40
24217;DHT22;12356;49.386;8.688;2022-08-05T06:19:16;24.40;66.90
24217;DHT22;12356;49.386;8.688;2022-08-05T06:21:47;24.40;69.60
24217;DHT22;12356;49.386;8.688;2022-08-05T06:24:19;24.40;71.20
24217;DHT22;12356;49.386;8.688;2022-08-05T06:26:49;24.40;73.40
24217;DHT22;12356;49.386;8.688;2022-08-05T06:29:20;24.30;73.70
24217;DHT22;12356;49.386;8.688;2022-08-05T06:31:51;24.30;73.70
24217;DHT22;12356;49.386;8.688;2022-08-05T06:34:22;24.30;75.10
24217;DHT22;12356;49.386;8.688;2022-08-05T06:36:53;24.30;75.70
24217;DHT22;12356;49.386;8.688;2022-08-05T06:39:24;24.30;75.40
24217;DHT22;12356;49.386;8.688;2022-08-05T06:41:56;24.30;75.60
24217;DHT22;12356;49.386;8.688;2022-08-05T06:44:27;24.30;75.10
24217;DHT22;12356;49.386;8.688;2022-08-05T06:46:57;24.30;74.70
24217;DHT22;12356;49.386;8.688;2022-08-05T06:49:28;24.30;76.00
24217;DHT22;12356;49.386;8.688;2022-08-05T06:51:59;24.40;75.00
24217;DHT22;12356;49.386;8.688;2022-08-05T06:54:29;24.40;72.90
24217;DHT22;12356;49.386;8.688;2022-08-05T06:57:00;24.50;71.00
24217;DHT22;12356;49.386;8.688;2022-08-05T06:59:30;24.60;70.40
24217;DHT22;12356;49.386;8.688;2022-08-05T07:02:01;24.70;71.40
24217;DHT22;12356;49.386;8.688;2022-08-05T07:04:32;24.70;72.00
24217;DHT22;12356;49.386;8.688;2022-08-05T07:07:02;24.80;71.80
24217;DHT22;12356;49.386;8.688;2022-08-05T07:09:33;24.80;72.50
24217;DHT22;12356;49.386;8.688;2022-08-05T07:12:04;24.80;71.20
24217;DHT22;12356;49.386;8.688;2022-08-05T07:14:34;24.90;69.30
24217;DHT22;12356;49.386;8.688;2022-08-05T07:17:24;25.00;66.70
24217;DHT22;12356;49.386;8.688;2022-08-05T07:19:54;25.10;67.10
24217;DHT22;12356;49.386;8.688;2022-08-05T07:22:26;25.20;65.60
24217;DHT22;12356;49.386;8.688;2022-08-05T07:24:58;25.30;65.10
24217;DHT22;12356;49.386;8.688;2022-08-05T07:27:29;25.40;64.30
24217;DHT22;12356;49.386;8.688;2022-08-05T07:30:02;25.50;64.30
24217;DHT22;12356;49.386;8.688;2022-08-05T07:32:36;25.60;64.50
24217;DHT22;12356;49.386;8.688;2022-08-05T07:35:08;25.70;63.30
24217;DHT22;12356;49.386;8.688;2022-08-05T07:37:39;25.80;62.40
24217;DHT22;12356;49.386;8.688;2022-08-05T07:40:10;25.90;61.80
24217;DHT22;12356;49.386;8.688;2022-08-05T07:42:41;26.00;61.00
24217;DHT22;12356;49.386;8.688;2022-08-05T07:45:12;26.10;60.10
24217;DHT22;12356;49.386;8.688;2022-08-05T07:47:43;26.10;60.90
24217;DHT22;12356;49.386;8.688;2022-08-05T07:50:13;26.10;58.40
24217;DHT22;12356;49.386;8.688;2022-08-05T07:52:44;26.10;58.60
24217;DHT22;12356;49.386;8.688;2022-08-05T07:55:16;26.20;59.70
24217;DHT22;12356;49.386;8.688;2022-08-05T07:57:46;26.30;58.60
24217;DHT22;12356;49.386;8.688;2022-08-05T08:00:17;26.30;54.50
24217;DHT22;12356;49.386;8.688;2022-08-05T08:02:47;26.30;54.50
24217;DHT22;12356;49.386;8.688;2022-08-05T08:05:18;26.30;55.60
24217;DHT22;12356;49.386;8.688;2022-08-05T08:07:49;26.40;54.80
24217;DHT22;12356;49.386;8.688;2022-08-05T08:10:23;26.40;56.40
24217;DHT22;12356;49.386;8.688;2022-08-05T08:12:53;26.40;56.50
24217;DHT22;12356;49.386;8.688;2022-08-05T08:15:24;26.40;52.80
24217;DHT22;12356;49.386;8.688;2022-08-05T08:17:55;26.40;52.10
24217;DHT22;12356;49.386;8.688;2022-08-05T08:20:26;26.40;53.70
24217;DHT22;12356;49.386;8.688;2022-08-05T08:22:58;26.40;55.10
24217;DHT22;12356;49.386;8.688;2022-08-05T08:25:29;26.30;55.90
24217;DHT22;12356;49.386;8.688;2022-08-05T08:28:00;26.30;54.90
24217;DHT22;12356;49.386;8.688;2022-08-05T08:30:31;26.30;54.50
24217;DHT22;12356;49.386;8.688;2022-08-05T08:33:07;26.30;54.50
24217;DHT22;12356;49.386;8.688;2022-08-05T08:35:38;26.20;54.70
24217;DHT22;12356;49.386;8.688;2022-08-05T08:38:08;26.20;55.40
24217;DHT22;12356;49.386;8.688;2022-08-05T08:40:39;26.20;55.50
24217;DHT22;12356;49.386;8.688;2022-08-05T08:43:11;26.20;55.00
24217;DHT22;12356;49.386;8.688;2022-08-05T08:45:44;26.30;55.80
24217;DHT22;12356;49.386;8.688;2022-08-05T08:48:18;26.30;55.90
24217;DHT22;12356;49.386;8.688;2022-08-05T08:50:50;26.30;55.00
24217;DHT22;12356;49.386;8.688;2022-08-05T08:53:21;26.30;56.10
24217;DHT22;12356;49.386;8.688;2022-08-05T08:55:54;26.30;55.90
24217;DHT22;12356;49.386;8.688;2022-08-05T08:58:24;26.40;55.60
24217;DHT22;12356;49.386;8.688;2022-08-05T09:00:55;26.40;55.10
24217;DHT22;12356;49.386;8.688;2022-08-05T09:03:27;26.40;54.70
24217;DHT22;12356;49.386;8.688;2022-08-05T09:05:58;26.40;54.00
24217;DHT22;12356;49.386;8.688;2022-08-05T09:08:29;26.50;54.60
24217;DHT22;12356;49.386;8.688;2022-08-05T09:10:59;26.50;53.60
24217;DHT22;12356;49.386;8.688;2022-08-05T09:13:30;26.50;52.90
24217;DHT22;12356;49.386;8.688;2022-08-05T09:16:02;26.50;52.70
24217;DHT22;12356;49.386;8.688;2022-08-05T09:18:34;26.50;54.10
24217;DHT22;12356;49.386;8.688;2022-08-05T09:21:05;26.50;53.60
24217;DHT22;12356;49.386;8.688;2022-08-05T09:23:36;26.60;51.90
24217;DHT22;12356;49.386;8.688;2022-08-05T09:26:08;26.50;50.80
24217;DHT22;12356;49.386;8.688;2022-08-05T09:28:39;26.60;49.50
24217;DHT22;12356;49.386;8.688;2022-08-05T09:31:12;26.60;49.30
24217;DHT22;12356;49.386;8.688;2022-08-05T09:33:52;26.60;48.70
24217;DHT22;12356;49.386;8.688;2022-08-05T09:36:38;26.60;51.10
24217;DHT22;12356;49.386;8.688;2022-08-05T09:39:11;26.60;50.40
24217;DHT22;12356;49.386;8.688;2022-08-05T09:42:02;26.60;49.90
24217;DHT22;12356;49.386;8.688;2022-08-05T09:44:41;26.70;50.60
24217;DHT22;12356;49.386;8.688;2022-08-05T09:47:17;26.70;48.70
24217;DHT22;12356;49.386;8.688;2022-08-05T09:49:50;26.80;47.40
24217;DHT22;12356;49.386;8.688;2022-08-05T09:52:26;26.90;46.80
24217;DHT22;12356;49.386;8.688;2022-08-05T09:55:03;26.90;46.90
24217;DHT22;12356;49.386;8.688;2022-08-05T09:57:42;26.90;47.60
24217;DHT22;12356;49.386;8.688;2022-08-05T10:00:19;27.00;48.00
24217;DHT22;12356;49.386;8.688;2022-08-05T10:02:51;27.10;47.60
24217;DHT22;12356;49.386;8.688;2022-08-05T10:05:27;27.20;48.70
24217;DHT22;12356;49.386;8.688;2022-08-05T10:08:00;27.20;45.30
24217;DHT22;12356;49.386;8.688;2022-08-05T10:10:36;27.40;45.10
24217;DHT22;12356;49.386;8.688;2022-08-05T10:13:06;27.40;43.20
24217;DHT22;12356;49.386;8.688;2022-08-05T10:15:38;27.40;42.70
24217;DHT22;12356;49.386;8.688;2022-08-05T10:18:17;27.50;44.50
24217;DHT22;12356;49.386;8.688;2022-08-05T10:21:01;27.50;44.90
24217;DHT22;12356;49.386;8.688;2022-08-05T10:23:35;27.50;42.20
24217;DHT22;12356;49.386;8.688;2022-08-05T10:26:08;27.60;42.70
24217;DHT22;12356;49.386;8.688;2022-08-05T10:28:41;27.60;42.30
24217;DHT22;12356;49.386;8.688;2022-08-05T10:31:14;27.70;43.10
24217;DHT22;12356;49.386;8.688;2022-08-05T10:33:45;27.70;41.10
24217;DHT22;12356;49.386;8.688;2022-08-05T10:36:16;27.70;40.40
24217;DHT22;12356;49.386;8.688;2022-08-05T10:38:48;27.70;40.30
24217;DHT22;12356;49.386;8.688;2022-08-05T10:41:24;27.70;40.30
24217;DHT22;12356;49.386;8.688;2022-08-05T10:44:01;27.70;40.40
24217;DHT22;12356;49.386;8.688;2022-08-05T10:46:49;27.70;41.20
24217;DHT22;12356;49.386;8.688;2022-08-05T10:49:21;27.80;42.00
24217;DHT22;12356;49.386;8.688;2022-08-05T10:51:54;27.80;41.40
24217;DHT22;12356;49.386;8.688;2022-08-05T10:54:47;27.90;40.50
24217;DHT22;12356;49.386;8.688;2022-08-05T10:57:25;27.90;40.50
24217;DHT22;12356;49.386;8.688;2022-08-05T11:00:16;27.90;39.90
24217;DHT22;12356;49.386;8.688;2022-08-05T11:05:37;27.90;40.40
24217;DHT22;12356;49.386;8.688;2022-08-05T11:08:09;27.90;40.50
24217;DHT22;12356;49.386;8.688;2022-08-05T11:10:40;28.00;40.30
24217;DHT22;12356;49.386;8.688;2022-08-05T11:13:42;28.10;40.80
24217;DHT22;12356;49.386;8.688;2022-08-05T11:16:22;28.10;40.90
24217;DHT22;12356;49.386;8.688;2022-08-05T11:19:28;28.20;41.10
24217;DHT22;12356;49.386;8.688;2022-08-05T11:36:07;28.10;43.10
24217;DHT22;12356;49.386;8.688;2022-08-05T11:41:25;28.20;44.00
24217;DHT22;12356;49.386;8.688;2022-08-05T11:44:04;28.20;44.00
24217;DHT22;12356;49.386;8.688;2022-08-05T11:46:42;28.20;43.90
24217;DHT22;12356;49.386;8.688;2022-08-05T11:49:18;28.10;44.40
24217;DHT22;12356;49.386;8.688;2022-08-05T11:51:51;28.20;44.70
24217;DHT22;12356;49.386;8.688;2022-08-05T11:54:26;28.20;44.30
24217;DHT22;12356;49.386;8.688;2022-08-05T11:56:57;28.20;44.10
24217;DHT22;12356;49.386;8.688;2022-08-05T11:59:29;28.10;44.80
24217;DHT22;12356;49.386;8.688;2022-08-05T12:02:06;28.10;45.20
24217;DHT22;12356;49.386;8.688;2022-08-05T12:07:13;28.10;45.60
24217;DHT22;12356;49.386;8.688;2022-08-05T12:09:51;28.10;45.70
24217;DHT22;12356;49.386;8.688;2022-08-05T12:12:23;28.10;46.10
24217;DHT22;12356;49.386;8.688;2022-08-05T12:14:55;28.10;46.20
24217;DHT22;12356;49.386;8.688;2022-08-05T12:17:25;28.20;45.90
24217;DHT22;12356;49.386;8.688;2022-08-05T12:19:58;28.20;46.00
24217;DHT22;12356;49.386;8.688;2022-08-05T12:22:29;28.20;45.50
24217;DHT22;12356;49.386;8.688;2022-08-05T12:24:59;28.20;45.60
24217;DHT22;12356;49.386;8.688;2022-08-05T12:27:31;28.20;45.20
24217;DHT22;12356;49.386;8.688;2022-08-05T12:30:06;28.10;46.50
24217;DHT22;12356;49.386;8.688;2022-08-05T12:32:45;28.10;47.30
24217;DHT22;12356;49.386;8.688;2022-08-05T12:35:16;28.10;46.80
24217;DHT22;12356;49.386;8.688;2022-08-05T12:37:48;28.10;47.10
24217;DHT22;12356;49.386;8.688;2022-08-05T12:40:19;28.10;47.30
24217;DHT22;12356;49.386;8.688;2022-08-05T12:42:54;28.10;47.20
24217;DHT22;12356;49.386;8.688;2022-08-05T12:45:25;28.10;47.00
24217;DHT22;12356;49.386;8.688;2022-08-05T12:47:55;28.10;47.10
24217;DHT22;12356;49.386;8.688;2022-08-05T12:50:26;28.10;47.40
24217;DHT22;12356;49.386;8.688;2022-08-05T12:52:57;28.10;46.70
24217;DHT22;12356;49.386;8.688;2022-08-05T12:55:30;28.00;46.60
24217;DHT22;12356;49.386;8.688;2022-08-05T12:58:01;28.00;46.30
24217;DHT22;12356;49.386;8.688;2022-08-05T13:00:31;27.90;46.40
24217;DHT22;12356;49.386;8.688;2022-08-05T13:03:04;27.90;46.90
24217;DHT22;12356;49.386;8.688;2022-08-05T13:05:36;27.90;45.70
24217;DHT22;12356;49.386;8.688;2022-08-05T13:08:07;27.80;46.80
24217;DHT22;12356;49.386;8.688;2022-08-05T13:10:41;27.80;46.50
24217;DHT22;12356;49.386;8.688;2022-08-05T13:13:12;27.80;46.20
24217;DHT22;12356;49.386;8.688;2022-08-05T13:15:49;27.90;46.80
24217;DHT22;12356;49.386;8.688;2022-08-05T13:18:20;27.90;46.40
24217;DHT22;12356;49.386;8.688;2022-08-05T13:20:51;27.90;47.00
24217;DHT22;12356;49.386;8.688;2022-08-05T13:23:21;27.90;47.20
24217;DHT22;12356;49.386;8.688;2022-08-05T13:25:52;28.00;47.10
24217;DHT22;12356;49.386;8.688;2022-08-05T13:28:22;28.00;47.20
24217;DHT22;12356;49.386;8.688;2022-08-05T13:30:53;28.00;47.40
24217;DHT22;12356;49.386;8.688;2022-08-05T13:33:24;28.00;47.40
24217;DHT22;12356;49.386;8.688;2022-08-05T13:35:55;28.00;47.70
24217;DHT22;12356;49.386;8.688;2022-08-05T13:38:25;28.00;47.60
24217;DHT22;12356;49.386;8.688;2022-08-05T13:40:56;27.90;47.90
24217;DHT22;12356;49.386;8.688;2022-08-05T13:43:26;27.80;47.50
24217;DHT22;12356;49.386;8.688;2022-08-05T13:45:57;27.70;48.10
24217;DHT22;12356;49.386;8.688;2022-08-05T13:48:28;27.70;48.60
24217;DHT22;12356;49.386;8.688;2022-08-05T13:51:09;27.80;49.90
24217;DHT22;12356;49.386;8.688;2022-08-05T13:53:41;27.80;50.10
24217;DHT22;12356;49.386;8.688;2022-08-05T13:56:12;27.80;49.40
24217;DHT22;12356;49.386;8.688;2022-08-05T13:58:42;27.80;49.90
24217;DHT22;12356;49.386;8.688;2022-08-05T14:01:13;27.90;49.60
24217;DHT22;12356;49.386;8.688;2022-08-05T14:03:44;27.90;49.40
24217;DHT22;12356;49.386;8.688;2022-08-05T14:06:14;27.90;48.80
24217;DHT22;12356;49.386;8.688;2022-08-05T14:08:45;28.00;49.20
24217;DHT22;12356;49.386;8.688;2022-08-05T14:11:15;28.00;48.30
24217;DHT22;12356;49.386;8.688;2022-08-05T14:13:46;28.10;48.20
24217;DHT22;12356;49.386;8.688;2022-08-05T14:16:17;28.10;48.30
24217;DHT22;12356;49.386;8.688;2022-08-05T14:18:47;28.20;48.10
24217;DHT22;12356;49.386;8.688;2022-08-05T14:21:18;28.20;47.60
24217;DHT22;12356;49.386;8.688;2022-08-05T14:23:49;28.20;47.50
24217;DHT22;12356;49.386;8.688;2022-08-05T14:26:19;28.20;46.90
24217;DHT22;12356;49.386;8.688;2022-08-05T14:28:50;28.30;46.50
24217;DHT22;12356;49.386;8.688;2022-08-05T14:31:21;28.20;45.50
24217;DHT22;12356;49.386;8.688;2022-08-05T14:33:51;28.20;44.70
24217;DHT22;12356;49.386;8.688;2022-08-05T14:36:22;28.20;45.20
24217;DHT22;12356;49.386;8.688;2022-08-05T14:38:53;28.20;46.20
24217;DHT22;12356;49.386;8.688;2022-08-05T14:41:24;28.20;46.20
24217;DHT22;12356;49.386;8.688;2022-08-05T14:43:54;28.20;45.60
24217;DHT22;12356;49.386;8.688;2022-08-05T14:46:28;28.20;45.70
24217;DHT22;12356;49.386;8.688;2022-08-05T14:49:00;28.10;45.80
24217;DHT22;12356;49.386;8.688;2022-08-05T14:51:31;28.10;46.10
24217;DHT22;12356;49.386;8.688;2022-08-05T14:54:02;28.10;45.80
24217;DHT22;12356;49.386;8.688;2022-08-05T14:56:33;28.10;45.20
24217;DHT22;12356;49.386;8.688;2022-08-05T14:59:04;28.10;44.90
24217;DHT22;12356;49.386;8.688;2022-08-05T15:01:35;28.00;45.40
24217;DHT22;12356;49.386;8.688;2022-08-05T15:04:05;28.00;45.40
24217;DHT22;12356;49.386;8.688;2022-08-05T15:06:39;28.00;45.00
24217;DHT22;12356;49.386;8.688;2022-08-05T15:09:10;27.90;45.20
24217;DHT22;12356;49.386;8.688;2022-08-05T15:11:40;27.90;45.20
24217;DHT22;12356;49.386;8.688;2022-08-05T15:14:11;27.90;45.40
24217;DHT22;12356;49.386;8.688;2022-08-05T15:16:41;27.90;45.30
24217;DHT22;12356;49.386;8.688;2022-08-05T15:19:12;27.80;45.20
24217;DHT22;12356;49.386;8.688;2022-08-05T15:21:43;27.80;45.40
24217;DHT22;12356;49.386;8.688;2022-08-05T15:24:13;27.70;45.40
24217;DHT22;12356;49.386;8.688;2022-08-05T15:26:44;27.70;46.10
24217;DHT22;12356;49.386;8.688;2022-08-05T15:29:14;27.70;46.90
24217;DHT22;12356;49.386;8.688;2022-08-05T15:31:45;27.70;47.30
24217;DHT22;12356;49.386;8.688;2022-08-05T15:34:16;27.70;47.80
24217;DHT22;12356;49.386;8.688;2022-08-05T15:36:47;27.70;48.10
24217;DHT22;12356;49.386;8.688;2022-08-05T15:39:18;27.70;48.30
24217;DHT22;12356;49.386;8.688;2022-08-05T15:41:48;27.70;49.60
24217;DHT22;12356;49.386;8.688;2022-08-05T15:44:19;27.70;51.80
24217;DHT22;12356;49.386;8.688;2022-08-05T15:46:50;27.60;52.40
24217;DHT22;12356;49.386;8.688;2022-08-05T15:49:20;27.60;53.50
24217;DHT22;12356;49.386;8.688;2022-08-05T15:51:51;27.50;54.40
24217;DHT22;12356;49.386;8.688;2022-08-05T15:54:21;27.30;55.30
24217;DHT22;12356;49.386;8.688;2022-08-05T15:56:52;27.30;55.30
24217;DHT22;12356;49.386;8.688;2022-08-05T15:59:23;27.30;55.90
24217;DHT22;12356;49.386;8.688;2022-08-05T16:01:53;27.20;55.60
24217;DHT22;12356;49.386;8.688;2022-08-05T16:04:24;27.20;55.60
24217;DHT22;12356;49.386;8.688;2022-08-05T16:06:55;27.10;55.90
24217;DHT22;12356;49.386;8.688;2022-08-05T16:09:26;27.10;56.10
24217;DHT22;12356;49.386;8.688;2022-08-05T16:11:57;27.00;56.20
24217;DHT22;12356;49.386;8.688;2022-08-05T16:14:28;26.90;56.00
24217;DHT22;12356;49.386;8.688;2022-08-05T16:16:59;26.80;56.40
24217;DHT22;12356;49.386;8.688;2022-08-05T16:19:29;26.70;56.70
24217;DHT22;12356;49.386;8.688;2022-08-05T16:22:00;26.60;57.00
24217;DHT22;12356;49.386;8.688;2022-08-05T16:24:31;26.60;57.50
24217;DHT22;12356;49.386;8.688;2022-08-05T16:27:03;26.60;57.20
24217;DHT22;12356;49.386;8.688;2022-08-05T16:29:34;26.60;57.10
24217;DHT22;12356;49.386;8.688;2022-08-05T16:32:05;26.60;56.90